Date,TemperatureHighF,TemperatureAvgF,TemperatureLowF,DewpointHighF,DewpointAvgF,DewpointLowF,HumidityHigh,HumidityAvg,HumidityLow,PressureMaxIn,PressureMinIn,WindSpeedMaxMPH,WindSpeedAvgMPH,GustSpeedMaxMPH,PrecipitationSumIn
2013-1-1,25.3,22.6,19.2,19.1,15.9,12.9,84,75,68,30.23,30.11,9,1,10,0.00
2013-1-2,26.7,24.1,18.6,22.7,19.0,12.1,86,81,73,30.22,30.15,11,2,15,0.00
2013-1-3,29.8,25.8,19.4,26.0,21.3,12.5,92,83,73,30.23,30.09,11,3,13,0.00
2013-1-4,33.9,29.7,26.1,27.6,25.0,21.1,88,82,75,30.22,30.09,15,3,18,0.00
2013-1-5,36.8,30.8,24.0,32.2,27.3,22.3,96,87,67,30.26,29.99,12,2,14,0.03
2013-1-6,36.5,33.7,31.0,33.8,30.3,23.4,96,87,70,30.32,29.89,12,3,16,0.18
2013-1-7,38.0,31.8,26.9,27.1,23.8,17.3,89,73,46,30.35,30.14,15,5,18,0.00
2013-1-8,38.0,32.1,26.9,29.6,26.6,23.5,88,80,69,30.24,30.11,8,2,12,0.00
2013-1-9,44.5,38.9,31.2,35.1,31.4,26.1,85,75,59,30.46,30.01,18,4,22,0.00
2013-1-10,45.6,34.4,24.3,34.0,28.1,23.1,95,79,49,30.57,30.08,11,1,13,0.25
2013-1-11,52.3,46.0,36.2,51.7,44.6,33.8,98,95,90,30.08,29.74,11,3,15,0.60
2013-1-12,56.0,48.2,36.6,49.3,42.7,32.4,92,82,63,29.98,29.76,14,3,18,0.04
2013-1-13,36.4,30.8,24.2,33.8,28.6,19.2,96,92,81,30.16,29.85,12,2,17,0.20
2013-1-14,25.3,21.4,17.5,19.5,16.9,14.7,91,83,74,30.49,30.16,15,2,17,0.00
2013-1-15,31.5,23.9,18.6,20.9,18.6,15.7,93,80,63,30.48,30.20,7,1,9,0.00
2013-1-16,35.1,28.4,19.4,30.0,22.9,16.4,89,80,61,30.19,29.83,14,4,21,0.00
2013-1-17,35.0,27.2,21.3,29.5,18.3,10.2,80,69,60,30.40,30.02,17,4,18,0.00
2013-1-18,40.2,28.8,18.6,31.4,20.0,10.9,87,70,62,30.46,29.93,20,5,25,0.00
2013-1-19,44.7,41.5,38.0,38.0,33.8,19.5,81,74,47,29.93,29.63,22,6,25,0.00
2013-1-20,37.3,17.5,14.9,24.6,11.6,8.6,88,78,55,30.26,29.67,24,5,33,0.00
2013-1-21,15.6,10.5,3.2,12.3,7.5,0.4,90,88,82,30.24,30.09,12,2,12,0.00
2013-1-22,10.1,4.8,0.4,7.3,2.0,-2.6,89,88,86,30.38,30.24,8,1,10,0.00
2013-1-23,18.4,11.4,3.4,16.0,8.9,0.6,93,90,88,30.38,30.13,0,0,1,0.00
2013-1-24,17.6,10.1,-0.1,12.8,5.6,-2.9,91,82,63,30.70,30.28,0,0,0,0.00
2013-1-25,22.2,17.8,12.2,20.3,13.5,5.1,94,83,72,30.54,30.03,0,0,0,0.00
2013-1-26,29.7,23.8,19.7,21.8,18.9,16.3,93,82,62,30.49,30.12,9,1,9,0.00
2013-1-27,31.7,25.8,19.4,30.1,21.4,16.9,94,83,72,30.48,30.07,14,2,15,0.00
2013-1-28,43.8,36.9,31.7,43.3,35.3,29.9,98,94,88,30.07,29.86,10,2,13,0.42
2013-1-29,55.9,47.0,33.5,55.4,46.4,31.7,99,98,93,30.00,29.41,13,3,16,1.37
2013-1-30,49.1,38.5,24.3,48.6,37.7,22.2,99,97,90,29.43,29.14,17,2,23,0.52
2013-1-31,24.4,18.6,15.3,22.2,16.2,13.6,93,90,81,30.00,29.44,16,4,21,0.00
2013-2-1,16.0,13.7,10.3,14.5,11.6,7.8,94,91,87,30.31,30.00,8,2,9,0.00
2013-2-2,17.9,13.3,1.9,16.3,10.2,-0.6,95,88,70,30.23,30.07,9,1,9,0.00
2013-2-3,20.3,14.3,3.4,17.3,11.4,1.4,92,88,84,30.09,29.96,8,1,10,0.00
2013-2-4,24.2,17.4,10.0,19.0,14.4,8.0,93,88,79,30.08,29.95,4,0,5,0.00
2013-2-5,29.2,19.1,3.5,27.3,16.5,1.3,95,90,81,30.08,29.83,11,2,13,0.00
2013-2-6,34.8,25.0,8.9,24.1,19.5,6.6,96,80,61,30.32,30.08,7,1,10,0.06
2013-2-7,32.9,29.8,27.3,31.2,26.7,21.9,97,88,77,30.26,29.91,8,2,9,0.00
2013-2-8,32.0,26.4,13.2,29.5,22.6,11.6,97,86,68,30.43,29.91,14,3,15,0.00
2013-2-9,33.6,18.2,0.5,23.9,13.3,-2.0,95,82,64,30.49,30.25,6,1,8,0.00
2013-2-10,41.7,29.9,17.8,40.4,26.8,15.7,96,88,75,30.25,29.58,11,2,16,0.07
2013-2-11,44.5,35.2,30.0,42.8,31.4,23.7,96,86,75,29.95,29.54,18,5,23,0.02
2013-2-12,30.0,28.4,26.6,25.0,23.6,21.8,86,82,78,30.10,29.95,12,2,15,0.00
2013-2-13,39.8,30.1,23.2,30.8,25.9,21.0,95,85,68,29.97,29.77,8,2,12,0.02
2013-2-14,39.6,32.9,27.2,34.4,30.8,24.4,97,92,79,29.96,29.67,14,3,20,0.10
2013-2-15,28.0,23.7,20.2,24.4,18.7,15.2,93,81,65,30.21,29.96,12,3,14,0.00
2013-2-16,22.5,17.3,8.0,18.6,14.2,6.0,94,88,63,30.19,30.11,10,2,14,0.00
2013-2-17,25.3,12.5,-2.1,13.1,6.4,-4.8,92,78,58,30.30,30.19,7,1,8,0.00
2013-2-18,45.4,34.1,18.7,42.0,26.0,11.6,95,72,59,30.20,29.45,14,3,17,0.17
2013-2-19,43.1,24.2,15.6,41.3,22.3,13.7,95,92,89,30.05,29.41,15,4,23,0.08
2013-2-20,22.2,18.7,14.8,17.0,14.3,11.8,93,83,74,30.37,30.05,18,5,19,0.00
2013-2-21,27.7,22.8,20.4,20.4,17.2,14.7,84,79,71,30.44,30.21,13,3,15,0.00
2013-2-22,32.5,26.2,20.5,31.6,23.9,15.6,97,91,80,30.23,29.89,15,3,17,0.00
2013-2-23,31.1,28.6,25.8,28.5,25.2,22.1,91,87,72,29.96,29.88,9,2,11,0.00
2013-2-24,38.5,30.2,20.9,28.9,25.3,19.4,95,82,61,30.21,29.94,8,1,9,0.18
2013-2-25,40.8,28.0,13.2,28.8,21.5,11.6,95,78,52,30.28,30.13,5,0,7,0.03
2013-2-26,34.5,31.0,28.0,31.5,26.3,22.3,98,83,69,30.15,29.56,15,4,16,0.05
2013-2-27,36.5,33.5,31.9,35.7,32.9,31.4,98,98,96,29.66,29.52,8,1,10,0.39
2013-2-28,36.2,33.2,30.0,32.2,29.7,24.9,97,87,79,30.06,29.66,17,6,18,0.11
2013-3-1,30.0,27.2,21.3,25.2,20.4,16.1,83,75,66,30.22,30.06,7,2,9,0.00
2013-3-2,28.5,21.4,13.7,18.7,15.4,11.4,92,78,64,30.23,30.15,13,2,15,0.00
2013-3-3,31.5,21.1,10.9,20.4,15.0,9.1,93,78,58,30.18,30.09,9,1,11,0.00
2013-3-4,35.3,22.0,8.4,20.1,14.6,6.3,93,75,51,30.23,30.13,7,1,8,0.00
2013-3-5,32.5,26.7,20.6,24.6,19.6,14.2,87,74,66,30.17,29.90,10,3,14,0.00
2013-3-6,38.2,32.7,26.7,30.1,27.7,23.3,90,82,70,30.28,30.00,10,2,12,0.00
2013-3-7,36.3,31.3,21.9,29.6,25.0,19.3,90,78,58,30.47,30.27,10,2,10,0.00
2013-3-8,39.1,27.9,15.4,27.1,21.7,13.8,95,79,57,30.56,30.43,5,1,7,0.00
2013-3-9,42.7,34.8,22.9,34.3,27.7,20.8,93,76,62,30.44,29.98,11,2,15,0.00
2013-3-10,51.4,45.0,40.8,45.2,40.7,34.2,96,85,65,29.98,29.71,8,1,9,0.35
2013-3-11,52.2,43.8,33.8,48.8,41.5,32.5,98,92,71,29.71,29.51,15,3,21,0.22
2013-3-12,34.9,31.6,28.4,33.2,27.8,24.0,96,86,72,29.94,29.69,12,2,14,0.01
2013-3-13,30.1,26.8,23.3,26.3,19.7,14.7,92,75,56,30.30,29.94,16,4,20,0.00
2013-3-14,39.2,30.0,20.3,27.1,21.1,17.5,90,70,48,30.33,30.14,8,1,10,0.00
2013-3-15,40.1,35.6,32.3,35.2,32.6,27.1,96,89,78,30.14,29.87,8,2,11,0.07
2013-3-16,34.3,29.3,26.0,31.2,25.0,20.0,96,84,69,30.13,29.79,9,3,12,0.02
2013-3-17,32.2,27.5,23.3,22.4,17.1,12.2,78,65,51,30.32,30.13,12,3,15,0.01
2013-3-18,33.8,27.6,21.1,32.0,24.1,16.4,96,87,73,30.18,29.62,13,3,17,0.00
2013-3-19,29.2,24.1,19.7,25.3,18.6,15.0,92,80,58,30.02,29.69,15,4,20,0.00
2013-3-20,27.4,21.4,14.3,18.0,15.2,12.2,92,77,58,30.05,29.99,13,3,17,0.00
2013-3-21,29.8,23.3,13.8,25.8,19.0,11.9,94,84,71,30.06,29.97,12,2,15,0.00
2013-3-22,35.7,28.9,23.4,25.3,21.8,18.2,90,75,62,30.11,30.04,8,1,12,0.04
2013-3-23,35.5,29.7,23.4,25.9,23.5,20.3,89,78,66,30.19,30.10,7,1,10,0.00
2013-3-24,37.7,30.3,23.2,27.1,23.8,19.8,93,77,60,30.11,29.75,14,3,16,0.00
2013-3-25,39.2,33.8,30.1,28.1,26.0,22.8,81,73,60,30.04,29.71,14,4,18,0.00
2013-3-26,40.1,34.8,29.6,34.4,30.2,26.4,90,83,70,30.23,30.04,12,3,14,0.00
2013-3-27,42.7,36.0,30.7,30.7,27.9,24.0,95,74,52,30.31,30.23,14,3,19,0.00
2013-3-28,49.3,36.8,28.1,31.0,26.7,24.3,93,69,41,30.35,30.30,12,2,13,0.00
2013-3-29,50.6,35.4,21.8,33.4,26.5,20.4,96,74,38,30.35,30.28,10,1,11,0.00
2013-3-30,56.7,38.9,19.7,36.3,27.4,18.4,98,69,33,30.28,29.91,10,1,12,0.00
2013-3-31,48.7,42.8,36.3,41.7,37.5,31.4,96,82,62,29.91,29.70,13,3,19,0.04
2013-4-1,36.3,29.7,26.0,32.2,18.6,13.4,87,63,50,30.17,29.81,17,4,21,0.00
2013-4-2,37.2,30.2,20.6,21.1,17.8,13.4,84,61,41,30.33,30.16,15,3,17,0.00
2013-4-3,44.3,31.6,21.4,23.2,19.3,14.5,83,63,33,30.51,30.32,11,2,13,0.00
2013-4-4,51.7,39.7,23.7,30.3,22.5,18.1,84,53,32,30.40,30.00,19,2,19,0.00
2013-4-5,46.6,38.5,30.1,29.9,25.4,16.6,81,61,32,30.24,30.00,13,2,17,0.00
2013-4-6,58.7,46.9,36.0,45.0,28.1,16.8,73,49,37,30.23,29.66,16,4,20,0.01
2013-4-7,58.1,44.4,32.8,48.4,37.3,29.9,90,76,62,30.05,29.58,24,4,24,0.05
2013-4-8,54.7,40.7,33.0,51.6,37.9,30.4,97,90,79,30.04,29.67,16,2,18,0.47
2013-4-9,47.2,42.2,37.6,46.7,41.7,36.8,98,98,96,30.08,29.88,12,2,24,1.25
2013-4-10,41.6,39.8,37.8,41.1,38.9,33.7,98,96,85,30.05,29.81,13,4,17,0.40
2013-4-11,38.3,36.4,35.1,35.8,34.5,32.2,96,93,79,30.01,29.67,17,5,20,1.18
2013-4-12,41.3,37.2,33.5,38.0,35.1,32.7,98,92,81,29.81,29.59,13,2,20,0.23
2013-4-13,39.7,36.5,34.7,35.3,31.7,27.5,96,83,64,30.02,29.81,13,3,16,0.05
2013-4-14,51.4,39.6,29.7,42.6,34.8,27.8,96,83,68,30.12,29.85,12,2,20,0.09
2013-4-15,65.5,55.1,45.4,56.1,48.8,38.8,96,80,69,29.97,29.81,18,3,22,0.63
2013-4-16,50.1,44.9,39.9,45.3,37.9,32.2,97,78,55,30.29,29.94,11,2,13,0.26
2013-4-17,51.4,45.2,41.5,44.7,37.9,32.5,96,76,54,30.36,29.96,18,3,22,1.03
2013-4-18,62.5,54.8,44.9,60.6,53.5,44.1,99,95,86,30.01,29.40,21,3,23,2.54
2013-4-19,57.0,38.9,33.6,54.2,34.0,26.3,95,83,71,29.81,29.45,24,6,24,0.09
2013-4-20,37.4,32.5,27.1,29.6,21.9,15.1,87,66,43,30.50,29.81,15,4,19,0.00
2013-4-21,52.4,38.4,23.1,33.2,25.3,20.2,92,63,37,30.64,30.43,11,2,14,0.00
2013-4-22,65.4,50.7,34.9,35.9,32.3,27.3,80,53,26,30.44,30.14,9,2,13,0.00
2013-4-23,64.4,50.4,39.4,52.0,41.9,32.8,96,74,50,30.14,29.87,11,2,12,0.42
2013-4-24,44.7,38.3,33.2,37.7,30.8,24.5,96,76,47,30.13,29.90,16,4,17,0.12
2013-4-25,48.3,41.8,35.5,38.4,33.6,29.1,95,73,54,30.36,30.06,15,4,19,0.15
2013-4-26,65.6,50.4,34.2,43.7,35.4,29.3,82,59,36,30.44,30.28,14,3,17,0.00
2013-4-27,71.0,58.0,42.6,48.4,42.4,35.0,86,59,29,30.32,30.08,10,2,13,0.00
2013-4-28,65.5,58.1,51.2,55.1,48.0,39.3,92,70,56,30.08,29.83,7,1,10,0.00
2013-4-29,71.3,58.7,44.9,57.3,51.5,43.8,98,79,56,29.95,29.84,9,1,11,0.00
2013-4-30,80.3,67.0,56.3,63.2,57.8,53.0,93,73,54,29.97,29.85,16,4,21,0.41
2013-5-1,85.9,73.7,61.7,62.0,58.9,55.4,83,62,38,30.17,29.97,11,1,14,0.00
2013-5-2,85.0,68.6,57.7,64.2,57.2,51.6,87,68,39,30.19,30.08,8,1,8,0.00
2013-5-3,81.4,64.5,51.2,61.1,54.4,42.1,94,72,41,30.12,29.98,10,1,12,0.00
2013-5-4,75.3,66.5,56.9,51.4,45.0,38.3,64,47,28,30.08,30.00,14,2,15,0.00
2013-5-5,76.3,64.5,55.1,49.9,42.9,35.7,62,47,26,30.08,30.00,9,1,13,0.00
2013-5-6,76.3,63.0,48.3,47.1,41.5,31.5,84,50,20,30.07,29.97,6,0,10,0.00
2013-5-7,79.3,65.5,48.8,53.4,49.0,44.8,91,59,36,30.07,29.98,6,1,8,0.00
2013-5-8,80.7,67.0,52.5,57.2,51.5,46.1,93,61,35,30.05,29.96,8,1,10,0.00
2013-5-9,82.3,64.3,49.0,54.8,48.4,41.4,89,62,26,29.99,29.89,19,0,19,0.04
2013-5-10,56.5,49.8,45.7,55.4,48.4,43.9,97,95,89,29.95,29.78,8,1,8,0.40
2013-5-11,53.2,45.5,36.8,48.8,42.1,34.7,96,88,61,29.98,29.78,16,2,24,0.01
2013-5-12,45.9,40.5,35.0,36.7,31.4,27.2,93,71,50,30.17,29.97,16,4,17,0.00
2013-5-13,52.9,42.9,27.5,35.2,29.0,23.5,98,63,34,30.24,30.09,9,1,11,0.00
2013-5-14,74.8,60.6,46.6,59.2,44.8,29.3,82,57,47,30.10,29.63,9,1,17,0.00
2013-5-15,76.5,69.0,55.2,61.4,52.1,42.5,79,56,36,29.83,29.56,11,2,13,0.00
2013-5-16,81.4,64.1,45.8,55.2,48.5,41.9,95,62,33,30.01,29.83,8,1,9,0.00
2013-5-17,70.5,62.0,53.6,50.4,45.5,40.6,66,55,39,30.12,30.01,7,2,10,0.00
2013-5-18,82.5,68.5,55.2,62.7,53.7,47.0,80,61,43,30.14,29.99,7,1,9,0.00
2013-5-19,87.4,74.6,58.6,66.4,58.7,48.0,82,59,45,30.00,29.81,6,0,9,0.00
2013-5-20,88.1,78.6,69.4,72.3,65.3,59.7,86,66,41,29.85,29.72,16,2,18,0.00
2013-5-21,80.3,72.5,62.9,67.6,64.7,61.6,98,78,60,29.79,29.68,12,1,15,0.02
2013-5-22,69.7,64.4,55.8,67.4,62.7,55.0,98,94,84,29.72,29.63,9,1,12,0.48
2013-5-23,55.8,50.7,42.3,55.0,48.6,37.8,99,92,75,30.26,29.72,12,2,16,0.41
2013-5-24,57.4,46.7,33.6,45.9,39.4,32.5,97,77,55,30.43,30.26,10,1,12,0.00
2013-5-25,65.2,52.0,37.4,44.2,39.6,33.8,98,68,32,30.44,30.32,4,0,5,0.00
2013-5-26,70.0,57.6,41.7,45.9,41.2,36.6,96,59,33,30.38,30.22,4,1,7,0.00
2013-5-27,59.0,53.9,50.6,51.2,45.8,39.7,96,76,54,30.24,29.96,8,1,13,0.07
2013-5-28,77.2,63.3,52.6,69.2,61.1,51.1,99,93,74,29.98,29.77,11,1,14,1.03
2013-5-29,80.9,69.4,62.0,68.7,64.8,60.3,98,86,63,29.99,29.78,11,1,17,0.13
2013-5-30,86.0,77.9,69.1,72.3,67.9,63.2,89,72,57,29.98,29.86,14,2,16,0.00
2013-5-31,80.0,73.9,65.8,68.6,66.5,63.4,95,78,60,29.92,29.78,13,2,16,0.12
2013-6-1,79.2,71.5,63.4,67.3,64.5,61.8,96,80,58,29.79,29.66,13,2,17,0.33
2013-6-2,63.3,55.0,45.2,62.1,50.2,41.4,98,85,66,30.05,29.65,13,2,14,0.04
2013-6-3,66.2,52.7,38.2,48.9,43.0,37.3,98,72,46,30.14,30.05,8,1,10,0.00
2013-6-4,73.3,60.6,45.5,53.9,48.4,44.1,96,67,43,30.22,30.13,8,1,9,0.00
2013-6-5,71.7,62.5,57.4,52.8,46.8,37.8,84,58,33,30.17,30.01,9,1,12,0.04
2013-6-6,65.3,59.3,55.2,54.9,52.3,49.2,91,78,63,30.02,29.91,5,1,7,0.07
2013-6-7,74.2,62.2,48.9,52.8,49.3,46.3,94,66,39,29.97,29.87,7,1,10,0.00
2013-6-8,75.9,63.9,51.2,56.7,51.2,43.4,94,66,35,30.05,29.92,6,0,8,0.00
2013-6-9,81.6,69.0,57.4,66.2,60.0,52.3,96,75,53,30.06,29.89,10,1,10,0.48
2013-6-10,74.1,67.1,62.8,69.1,64.0,59.3,97,90,74,29.90,29.75,7,1,9,0.19
2013-6-11,81.0,67.9,55.7,69.7,62.4,55.1,99,84,64,29.94,29.83,9,0,11,0.01
2013-6-12,80.7,70.4,63.0,71.1,66.1,61.8,97,87,70,29.93,29.63,10,1,13,0.72
2013-6-13,76.7,67.4,59.9,64.3,60.1,55.9,98,79,53,29.99,29.62,14,4,17,0.36
2013-6-14,77.5,65.1,52.5,60.0,55.0,51.1,97,72,42,30.13,29.99,7,1,8,0.00
2013-6-15,74.7,64.7,53.2,64.7,59.5,52.4,98,84,68,30.08,29.87,11,1,12,0.01
2013-6-16,81.0,70.1,63.4,67.4,63.5,59.3,97,81,51,29.90,29.80,7,1,10,1.44
2013-6-17,85.3,71.3,57.8,66.4,60.4,56.6,98,72,39,29.93,29.85,9,1,11,0.00
2013-6-18,73.0,65.3,57.6,60.2,53.0,43.4,91,67,38,30.09,29.92,7,1,11,0.00
2013-6-19,77.6,64.1,49.6,52.5,46.7,42.9,82,56,33,30.19,30.09,7,1,7,0.00
2013-6-20,86.1,68.7,49.1,60.6,53.9,46.5,98,65,33,30.21,30.12,4,0,5,0.00
2013-6-21,84.7,75.6,65.4,68.0,63.8,58.0,86,68,50,30.17,29.96,9,1,14,0.00
2013-6-22,87.8,76.1,68.0,72.4,68.3,65.3,92,78,55,30.11,29.95,6,0,11,0.00
2013-6-23,89.8,79.5,68.3,72.2,68.8,65.4,91,72,52,30.03,29.93,9,1,13,0.00
2013-6-24,85.2,77.4,70.2,71.9,68.4,64.2,89,74,55,30.04,29.85,7,1,11,0.00
2013-6-25,81.6,71.8,66.1,74.1,68.0,64.2,97,88,73,29.99,29.82,12,1,14,0.52
2013-6-26,85.7,75.9,66.3,73.0,69.3,65.4,98,81,60,29.85,29.72,5,0,8,0.00
2013-6-27,84.7,74.8,66.4,73.4,69.6,65.8,98,85,62,29.75,29.66,8,1,11,0.00
2013-6-28,80.2,71.2,63.8,69.2,65.0,62.8,98,82,63,29.66,29.56,11,1,12,0.00
2013-6-29,75.5,68.0,61.4,66.2,62.9,60.5,98,85,68,29.76,29.57,7,1,11,0.01
2013-6-30,81.8,72.0,62.3,66.1,59.5,48.8,93,67,41,29.99,29.76,8,1,8,0.00
2013-7-1,79.2,67.9,55.3,58.1,50.8,45.1,81,56,37,30.10,29.99,11,2,20,0.00
2013-7-2,66.7,62.1,58.1,61.2,55.2,41.2,95,80,42,30.11,30.05,5,0,8,0.31
2013-7-3,80.3,67.6,59.3,69.1,61.7,53.7,94,82,63,30.09,30.02,7,0,8,0.01
2013-7-4,80.1,71.0,62.3,66.0,63.2,57.9,98,79,48,30.13,30.06,7,0,9,0.00
2013-7-5,86.8,74.2,62.6,68.0,64.4,61.4,98,74,45,30.12,30.03,5,0,7,0.00
2013-7-6,87.3,75.9,67.0,71.6,67.6,63.4,95,77,54,30.08,29.97,6,0,7,0.00
2013-7-7,86.7,76.8,70.5,73.0,69.9,67.5,94,80,60,30.02,29.95,9,0,9,0.00
2013-7-8,79.8,75.5,71.4,73.8,71.3,69.1,95,87,78,30.01,29.94,9,1,12,0.03
2013-7-9,86.5,75.1,67.2,77.2,71.1,66.6,98,88,64,29.99,29.85,5,0,7,0.01
2013-7-10,81.5,75.7,62.3,75.9,67.2,56.1,97,76,51,29.98,29.80,15,2,17,0.00
2013-7-11,81.6,69.0,55.8,62.7,57.6,51.3,98,71,36,30.08,29.98,10,1,15,0.00
2013-7-12,83.7,71.8,59.3,61.2,57.6,51.1,93,65,36,30.17,30.07,6,1,7,0.00
2013-7-13,86.8,74.7,59.8,64.5,60.2,56.3,96,65,38,30.19,30.13,7,1,9,0.00
2013-7-14,91.8,79.6,66.4,71.7,67.0,61.4,89,68,46,30.23,30.18,5,0,5,0.00
2013-7-15,93.8,82.4,70.1,77.4,72.9,68.6,96,75,51,30.28,30.20,6,0,8,0.00
2013-7-16,90.7,82.7,73.5,77.7,74.2,71.6,96,77,58,30.30,30.23,0,0,0,0.00
2013-7-17,93.3,83.3,75.3,78.9,74.8,71.7,93,77,57,30.28,30.15,0,0,0,0.00
2013-7-18,94.1,84.6,73.8,77.6,74.1,71.3,95,73,53,30.16,29.91,0,0,0,0.00
2013-7-19,94.3,84.7,73.4,77.3,74.2,68.5,96,72,52,29.93,29.70,17,1,24,0.32
2013-7-20,86.0,77.5,67.9,73.0,64.0,57.6,89,65,40,29.94,29.73,11,1,12,0.00
2013-7-21,85.7,71.5,61.3,69.9,60.1,51.3,97,69,50,30.01,29.89,7,1,10,0.53
2013-7-22,84.9,74.4,64.6,71.5,67.7,63.6,98,81,57,29.94,29.73,4,0,7,0.03
2013-7-23,79.4,71.3,57.1,72.3,63.2,50.0,95,77,56,29.96,29.65,15,3,18,0.03
2013-7-24,74.3,61.7,47.9,55.1,50.5,46.3,95,69,42,30.07,29.95,8,1,9,0.00
2013-7-25,79.9,64.7,51.3,59.3,54.3,50.1,98,72,40,30.12,30.05,7,0,11,0.00
2013-7-26,75.7,66.4,59.7,63.8,59.3,51.1,97,78,60,30.07,29.87,8,1,12,0.27
2013-7-27,69.6,61.9,55.3,62.2,57.6,50.5,98,86,71,29.89,29.83,13,2,15,0.00
2013-7-28,64.7,57.7,53.9,57.4,54.0,51.0,97,88,68,29.98,29.81,10,1,14,0.65
2013-7-29,68.8,60.8,54.6,58.2,56.0,53.2,97,85,66,30.22,29.95,6,1,8,0.06
2013-7-30,78.8,65.1,48.3,62.7,56.7,47.8,99,77,51,30.25,30.12,5,0,7,0.07
2013-7-31,70.1,65.8,62.8,66.9,63.8,61.2,97,93,88,30.12,29.92,4,0,7,0.07
2013-8-1,78.1,68.0,60.4,66.7,60.6,53.8,99,80,48,29.95,29.92,12,1,17,0.01
2013-8-2,73.8,65.8,58.8,67.6,62.3,56.7,97,89,78,29.95,29.85,9,0,14,0.02
2013-8-3,76.2,66.7,55.9,64.6,58.1,51.6,99,77,46,30.10,29.92,12,1,14,0.01
2013-8-4,74.4,62.7,52.3,58.5,53.9,46.6,98,75,45,30.22,30.09,8,1,10,0.00
2013-8-5,72.3,61.5,49.0,62.4,55.5,48.2,98,82,62,30.14,29.94,4,0,6,0.00
2013-8-6,78.2,69.9,64.7,70.5,65.8,61.8,95,87,76,29.94,29.85,5,0,8,0.00
2013-8-7,81.5,72.6,63.4,73.8,67.9,61.8,97,86,73,29.94,29.79,11,1,14,0.31
2013-8-8,78.7,67.8,57.1,62.6,56.5,50.4,98,71,41,30.05,29.94,5,1,7,0.00
2013-8-9,79.7,68.6,54.8,64.1,59.3,54.0,98,74,48,30.03,29.97,10,1,11,0.00
2013-8-10,79.2,69.3,59.8,62.3,57.9,51.9,96,70,42,30.14,30.03,8,1,9,0.00
2013-8-11,77.5,68.2,56.8,61.2,57.6,55.3,96,71,50,30.14,30.06,8,1,8,0.00
2013-8-12,73.8,67.5,64.2,69.9,64.7,58.1,98,91,75,30.06,29.86,4,0,5,1.41
2013-8-13,66.9,60.3,52.5,62.6,51.7,46.6,93,75,55,30.14,29.91,14,3,19,0.00
2013-8-14,70.1,57.1,44.2,55.8,49.4,43.1,98,77,49,30.23,30.14,10,1,11,0.00
2013-8-15,75.4,61.0,47.2,61.2,53.4,46.7,99,79,48,30.19,30.11,7,1,10,0.00
2013-8-16,79.9,65.3,52.0,63.5,56.4,51.1,99,76,45,30.22,30.14,7,0,7,0.00
2013-8-17,82.1,67.5,52.5,64.5,56.6,51.7,99,73,37,30.27,30.18,4,0,5,0.00
2013-8-18,81.6,68.1,54.1,62.6,58.4,53.5,99,74,45,30.24,30.12,5,0,6,0.00
2013-8-19,81.7,67.8,52.3,65.0,59.3,51.5,98,77,50,30.14,30.05,7,0,8,0.00
2013-8-20,85.0,73.3,62.2,71.3,64.8,59.4,95,76,55,30.13,30.06,8,0,9,0.00
2013-8-21,87.0,77.0,65.7,71.4,67.2,63.1,93,73,52,30.09,29.95,9,1,12,0.00
2013-8-22,77.2,69.8,63.3,71.3,67.5,62.7,99,93,77,30.09,29.97,14,1,21,0.18
2013-8-23,81.0,68.3,53.8,65.4,57.1,51.8,99,72,38,30.21,30.09,7,1,8,0.00
2013-8-24,83.1,69.1,55.8,63.4,58.5,55.0,98,73,41,30.30,30.19,7,0,7,0.00
2013-8-25,86.5,74.6,62.1,68.0,63.6,58.1,88,70,52,30.27,30.12,9,1,15,0.00
2013-8-26,83.8,76.5,70.3,73.3,69.0,65.2,86,78,69,30.15,29.97,7,1,10,0.00
2013-8-27,90.3,81.6,73.4,77.4,73.7,71.3,97,78,59,30.00,29.78,9,1,15,0.12
2013-8-28,84.3,76.5,70.7,75.1,72.4,69.2,98,88,65,30.02,29.78,7,0,8,0.15
2013-8-29,88.1,76.1,66.0,72.0,68.1,65.3,99,79,50,30.09,29.99,4,0,5,0.00
2013-8-30,89.0,76.5,66.6,74.6,69.9,65.7,98,81,58,29.99,29.73,12,1,15,0.00
2013-8-31,81.6,71.8,63.8,68.3,65.5,62.9,98,82,62,29.86,29.79,6,0,10,0.00
2013-9-1,83.6,72.8,64.8,73.2,68.1,63.3,96,86,69,29.84,29.71,4,0,6,0.00
2013-9-2,70.5,65.0,59.9,68.9,59.6,52.2,97,83,65,29.98,29.75,11,3,14,0.00
2013-9-3,72.6,62.7,52.6,58.7,55.1,50.8,95,77,59,30.07,29.97,10,1,11,0.00
2013-9-4,79.3,66.0,54.3,64.6,59.7,53.4,98,82,55,30.13,30.03,13,1,13,0.00
2013-9-5,72.4,63.2,53.0,61.2,50.4,42.3,94,67,35,30.29,30.13,7,0,7,0.00
2013-9-6,79.2,64.8,49.3,58.6,52.9,47.1,95,69,37,30.27,30.03,6,0,8,0.00
2013-9-7,81.7,70.9,64.3,69.6,64.2,57.6,92,80,62,30.04,29.91,8,0,9,0.04
2013-9-8,77.5,69.7,65.3,65.4,62.0,57.1,98,78,51,30.08,29.95,7,1,12,0.01
2013-9-9,85.2,72.4,60.7,74.3,66.8,57.3,99,83,65,30.04,29.82,6,1,13,2.89
2013-9-10,92.4,83.3,76.4,74.0,69.7,66.2,86,65,45,29.97,29.83,11,1,16,0.00
2013-9-11,86.3,76.7,67.8,72.5,68.3,64.7,95,76,52,30.05,29.94,7,1,9,0.00
2013-9-12,75.2,67.4,56.7,67.1,58.8,49.3,98,76,48,30.06,29.91,18,2,18,0.00
2013-9-13,62.9,55.1,47.5,49.8,44.6,38.6,91,70,43,30.17,30.06,12,2,14,0.00
2013-9-14,68.5,54.2,39.8,55.2,46.9,38.9,98,78,52,30.22,30.08,7,0,11,0.00
2013-9-15,58.7,56.2,51.3,57.0,51.6,43.7,97,85,66,30.18,30.06,5,0,5,0.09
2013-9-16,60.5,54.5,47.0,55.2,48.9,44.5,98,82,62,30.39,30.18,8,1,9,0.00
2013-9-17,67.5,54.5,40.8,51.7,46.3,39.5,96,76,51,30.43,30.21,5,0,7,0.00
2013-9-18,78.0,64.9,52.4,61.2,55.4,48.7,91,73,51,30.21,29.98,7,0,11,0.01
2013-9-19,74.5,68.8,65.2,70.5,65.4,58.0,98,89,73,30.00,29.82,8,0,12,0.98
2013-9-20,73.5,70.3,62.1,70.7,66.5,58.4,94,88,83,29.84,29.73,9,1,10,0.00
2013-9-21,63.9,58.9,53.1,58.4,52.4,48.0,93,80,60,29.94,29.72,11,3,14,0.00
2013-9-22,56.2,51.9,45.6,48.9,45.7,43.2,96,80,66,30.11,29.94,7,0,11,0.00
2013-9-23,63.4,51.2,38.3,48.8,44.3,37.5,98,79,56,30.20,30.11,6,1,11,0.00
2013-9-24,67.3,54.8,42.9,52.2,47.8,41.8,97,79,54,30.16,30.00,5,1,8,0.00
2013-9-25,70.1,57.7,46.1,54.1,50.0,45.3,98,78,50,30.04,29.97,6,0,10,0.00
2013-9-26,73.7,59.4,46.3,55.5,50.9,45.1,97,77,42,30.14,30.01,4,0,5,0.00
2013-9-27,77.6,63.0,48.0,58.2,53.1,46.8,98,74,42,30.23,30.13,6,0,8,0.00
2013-9-28,80.3,66.5,52.3,61.5,55.3,50.3,97,70,44,30.16,29.93,8,1,9,0.00
2013-9-29,72.8,62.0,51.9,63.2,54.6,49.6,97,78,58,30.03,29.91,9,1,11,0.33
2013-9-30,71.5,58.7,47.7,57.8,52.1,46.9,98,81,48,30.02,29.92,5,0,9,0.00
2013-10-1,72.2,63.5,55.1,65.7,60.2,52.2,97,89,79,29.98,29.90,10,1,15,0.00
2013-10-2,75.6,64.3,52.2,63.7,52.6,42.0,99,71,32,30.12,29.93,5,0,6,0.00
2013-10-3,78.4,64.8,52.0,69.9,60.1,47.9,95,85,72,30.05,29.90,7,0,11,0.00
2013-10-4,78.3,69.6,64.7,69.6,66.1,63.8,98,89,72,30.00,29.91,6,0,7,0.11
2013-10-5,75.8,69.7,65.3,71.7,67.4,64.4,98,93,85,30.00,29.79,7,0,11,0.20
2013-10-6,69.7,59.7,51.0,67.3,57.3,47.3,97,92,71,29.79,29.69,8,0,13,0.35
2013-10-7,59.6,52.2,46.5,52.3,48.3,44.8,98,87,67,30.12,29.70,12,1,13,0.20
2013-10-8,71.7,57.0,43.3,54.7,48.5,42.3,97,76,50,30.25,30.12,5,0,8,0.00
2013-10-9,70.3,58.0,45.3,51.9,48.2,43.4,95,72,46,30.32,30.19,4,0,6,0.00
2013-10-10,73.1,56.7,44.0,54.6,48.5,42.8,97,77,42,30.23,30.12,3,0,4,0.00
2013-10-11,70.0,56.8,42.9,52.1,47.3,41.3,97,74,36,30.17,30.05,3,0,7,0.00
2013-10-12,77.9,62.8,50.4,62.3,54.8,44.9,98,77,48,30.12,30.00,8,0,10,0.34
2013-10-13,60.2,52.6,43.8,56.3,47.5,43.0,99,84,62,30.42,30.12,8,1,12,0.01
2013-10-14,60.7,48.7,36.3,46.6,40.5,35.8,99,76,45,30.47,30.26,5,1,8,0.00
2013-10-15,64.9,54.5,44.1,61.0,51.3,42.1,98,89,76,30.27,29.80,14,1,14,0.32
2013-10-16,60.2,52.9,50.8,56.0,49.8,46.9,98,89,82,29.90,29.81,7,0,14,0.28
2013-10-17,52.0,49.0,43.4,51.5,48.1,42.6,98,97,92,29.90,29.76,10,1,12,0.69
2013-10-18,59.7,47.9,40.4,51.8,44.2,39.6,98,87,71,29.93,29.86,8,1,11,0.00
2013-10-19,51.7,45.4,41.1,44.2,40.8,35.6,96,85,57,29.91,29.77,9,0,10,0.22
2013-10-20,56.2,48.7,39.4,51.9,42.3,37.5,95,80,56,29.91,29.75,8,0,18,0.07
2013-10-21,54.5,47.7,40.3,51.9,41.6,27.6,95,80,60,29.92,29.78,13,2,19,0.07
2013-10-22,47.5,41.1,34.2,36.5,32.6,27.1,97,72,59,29.95,29.91,13,2,14,0.07
2013-10-23,42.1,36.2,30.8,37.7,34.0,30.0,98,92,70,30.01,29.89,8,0,10,0.09
2013-10-24,44.1,36.3,32.5,38.4,33.5,30.4,98,90,63,30.25,29.99,11,1,16,0.31
2013-10-25,48.2,39.8,34.0,38.9,34.0,29.9,97,81,56,30.38,30.04,9,1,16,0.01
2013-10-26,52.1,47.9,41.4,42.7,37.2,33.0,75,66,54,30.05,29.79,18,3,31,0.01
2013-10-27,51.7,43.0,35.3,37.7,35.3,32.3,90,75,55,30.08,29.99,7,1,12,0.00
2013-10-28,48.0,40.8,34.1,40.5,35.6,32.6,97,82,68,30.44,30.06,6,1,9,0.00
2013-10-29,50.7,43.0,39.1,41.3,34.7,30.1,86,73,67,30.46,30.24,7,1,8,0.00
2013-10-30,63.9,49.8,35.6,56.1,44.6,33.8,97,84,58,30.24,29.87,5,0,7,0.35
2013-10-31,62.8,59.6,54.4,62.1,58.9,53.3,98,98,96,29.86,29.11,13,2,16,1.07
2013-11-1,54.4,46.7,44.7,53.3,44.7,41.8,98,93,84,29.69,29.19,13,1,18,0.31
2013-11-2,48.1,44.9,40.8,45.2,41.1,37.5,98,87,69,30.14,29.69,10,2,13,0.07
2013-11-3,50.2,42.1,36.0,38.9,35.5,33.6,93,78,57,30.41,30.14,7,1,8,0.01
2013-11-4,53.0,45.0,38.3,42.1,35.8,33.3,87,71,54,30.42,30.23,11,2,17,0.00
2013-11-5,59.9,53.1,49.6,49.7,46.5,41.9,88,78,67,30.33,30.06,7,1,10,0.00
2013-11-6,56.3,50.0,40.4,54.7,48.0,38.2,97,93,72,30.06,29.75,18,3,19,1.27
2013-11-7,43.2,38.3,33.9,38.3,32.2,29.2,95,79,66,30.21,30.06,11,2,14,0.02
2013-11-8,43.7,38.3,33.6,33.7,31.6,26.8,95,78,58,30.34,30.11,6,0,9,0.09
2013-11-9,51.1,47.6,41.0,44.7,38.7,32.6,80,71,62,30.11,29.83,15,3,20,0.00
2013-11-10,46.2,41.3,34.0,34.7,32.3,29.8,88,71,59,30.31,29.98,19,4,20,0.00
2013-11-11,46.0,36.6,25.5,39.5,31.8,21.7,95,83,72,30.45,30.07,16,3,21,0.27
2013-11-12,33.9,26.8,21.6,25.1,20.8,17.0,95,79,55,30.65,30.45,18,2,19,0.00
2013-11-13,40.7,31.1,20.4,27.9,23.3,18.1,93,74,51,30.59,30.18,18,3,19,0.00
2013-11-14,46.6,40.5,31.6,34.4,29.9,24.9,78,66,51,30.19,29.98,19,3,20,0.00
2013-11-15,48.7,43.0,38.4,37.7,33.4,29.8,77,69,56,30.03,29.97,12,2,13,0.00
2013-11-16,56.2,48.1,37.4,54.8,43.7,31.8,97,85,76,30.04,29.65,19,2,22,0.37
2013-11-17,65.0,56.2,43.1,61.4,54.0,38.9,96,92,78,29.67,29.17,26,5,27,1.35
2013-11-18,45.7,38.2,34.7,39.9,30.6,25.1,81,74,66,30.22,29.57,23,5,23,0.00
2013-11-19,41.2,34.9,27.2,26.6,24.8,22.3,83,67,52,30.42,30.22,12,2,17,0.00
2013-11-20,44.7,36.4,28.7,34.7,26.7,23.4,84,69,44,30.42,30.22,10,2,15,0.00
2013-11-21,50.8,44.7,38.0,44.3,40.4,34.6,97,85,74,30.26,30.18,9,1,11,0.12
2013-11-22,45.2,36.5,25.0,44.4,33.1,22.7,97,88,73,30.46,30.18,17,4,22,0.01
2013-11-23,31.1,24.0,17.3,24.6,16.6,10.0,91,74,58,30.65,30.35,21,6,24,0.00
2013-11-24,24.4,19.8,15.5,19.3,13.3,7.7,90,76,57,30.69,30.41,14,3,15,0.00
2013-11-25,34.0,26.9,20.2,30.5,21.0,10.3,96,79,62,30.41,30.08,16,5,18,0.00
2013-11-26,34.2,30.8,24.8,30.3,26.1,16.7,88,82,69,30.10,30.00,15,4,16,0.00
2013-11-27,28.2,23.2,19.0,20.8,16.2,12.7,86,75,59,30.27,30.09,19,4,24,0.00
2013-11-28,26.6,23.8,19.7,22.6,19.6,15.8,93,84,68,30.50,30.26,10,1,12,0.00
2013-11-29,33.7,25.7,16.3,25.0,21.4,14.8,95,84,69,30.70,30.49,4,0,6,0.03
2013-11-30,44.7,35.8,26.5,34.7,27.8,21.3,84,73,63,30.53,30.08,12,2,17,0.01
2013-12-1,42.0,37.0,33.7,35.3,30.9,26.5,94,79,63,30.13,30.04,10,1,13,0.00
2013-12-2,40.5,34.3,28.5,31.5,28.2,24.2,95,79,60,30.04,29.90,7,0,8,0.00
2013-12-3,35.7,33.4,30.2,34.9,30.9,24.3,97,91,72,29.92,29.81,9,2,10,0.70
2013-12-4,57.6,45.1,35.7,55.0,44.1,34.9,99,96,85,29.86,29.56,18,2,21,0.02
2013-12-5,55.1,35.6,27.1,51.6,29.7,19.9,90,79,71,30.22,29.57,14,4,16,0.00
2013-12-6,27.1,22.3,19.1,20.2,17.4,15.2,91,82,74,30.49,30.22,9,3,12,0.00
2013-12-7,19.7,16.8,10.8,17.1,13.7,8.3,93,87,80,30.69,30.49,8,1,9,0.00
2013-12-8,20.7,17.2,11.0,18.6,13.8,8.8,93,86,71,30.65,30.02,8,2,13,0.00
2013-12-9,28.4,23.2,16.2,26.5,18.5,9.0,95,82,69,30.18,29.91,14,3,18,0.00
2013-12-10,22.4,17.1,10.2,17.4,12.1,4.3,95,81,70,30.25,29.97,14,4,19,0.00
2013-12-11,20.5,16.4,11.8,17.9,13.2,8.7,93,87,77,30.52,30.25,13,2,15,0.00
2013-12-12,24.6,16.8,10.6,21.0,13.4,6.2,90,86,78,30.51,30.22,13,2,17,0.00
2013-12-13,28.4,25.1,21.1,22.8,20.4,16.5,90,82,74,30.29,30.19,8,1,8,0.00
2013-12-14,21.0,18.9,16.4,18.3,16.3,12.7,93,89,82,30.28,29.96,10,4,12,0.00
2013-12-15,24.0,18.8,14.8,21.8,14.8,9.4,94,84,71,30.11,29.88,14,3,17,0.00
2013-12-16,23.4,15.2,5.6,14.3,10.8,3.3,92,83,65,30.22,30.06,6,1,7,0.00
2013-12-17,31.6,26.0,17.0,28.5,23.2,14.1,95,89,75,30.06,29.90,14,2,15,0.00
2013-12-18,32.9,27.8,24.7,25.8,20.2,14.1,89,73,59,30.17,29.86,12,3,13,0.00
2013-12-19,38.7,34.7,28.5,34.1,31.3,25.8,96,87,76,30.00,29.84,8,2,11,0.10
2013-12-20,32.4,31.4,29.8,31.6,30.4,28.3,97,96,94,29.90,29.78,5,2,6,0.00
2013-12-21,32.1,31.4,29.8,31.6,30.6,28.0,98,97,93,29.90,29.73,8,1,11,0.00
2013-12-22,31.9,29.7,25.9,30.4,28.3,24.2,96,94,92,30.06,29.60,11,2,12,0.00
2013-12-23,27.3,23.3,16.4,24.8,20.9,13.9,94,90,84,30.37,30.06,7,0,8,0.00
2013-12-24,23.7,16.4,11.1,17.8,13.6,8.7,93,89,78,30.55,30.36,7,1,8,0.00
2013-12-25,24.8,19.9,12.1,23.6,17.6,9.7,95,90,85,30.50,30.10,11,3,13,0.00
2013-12-26,27.1,24.8,21.9,25.3,21.9,16.9,96,89,77,30.28,30.07,10,2,13,0.00
2013-12-27,39.9,32.2,26.6,33.7,29.0,25.4,96,88,76,30.34,30.07,12,2,17,0.21
2013-12-28,46.6,39.9,31.3,36.0,33.8,29.8,95,79,64,30.10,29.86,14,3,17,0.24
2013-12-29,43.2,31.0,18.1,33.8,25.3,10.7,92,80,66,30.13,29.76,18,6,21,0.00
2013-12-30,18.0,16.0,14.2,14.0,10.4,5.9,89,78,69,30.33,30.13,10,2,11,0.00
2013-12-31,17.5,15.1,12.9,14.3,12.0,10.0,91,88,80,30.40,30.16,7,1,10,0.00
2014-1-1,13.4,11.2,10.3,10.5,6.5,3.1,88,81,70,30.46,30.33,8,3,9,0.00
2014-1-2,13.6,9.9,-0.3,8.8,4.0,-4.5,84,77,64,30.44,30.25,13,3,13,0.00